createdAt,value
2023-01-10T00:01:52.197Z,6.60
2023-01-10T00:04:19.465Z,6.60
2023-01-10T00:06:46.728Z,6.60
2023-01-10T00:09:14.185Z,6.60
2023-01-10T00:11:59.759Z,6.50
2023-01-10T00:14:33.445Z,6.50
2023-01-10T00:17:02.074Z,6.60
2023-01-10T00:19:31.516Z,6.60
2023-01-10T00:22:02.719Z,6.60
2023-01-10T00:24:29.921Z,6.60
2023-01-10T00:26:57.145Z,6.70
2023-01-10T00:29:29.329Z,6.70
2023-01-10T00:31:57.214Z,6.60
2023-01-10T00:34:27.098Z,6.60
2023-01-10T00:36:56.568Z,6.60
2023-01-10T00:39:27.584Z,6.60
2023-01-10T00:42:13.210Z,6.60
2023-01-10T00:44:43.204Z,6.50
2023-01-10T00:47:10.485Z,6.40
2023-01-10T00:49:40.559Z,6.30
2023-01-10T00:52:10.414Z,6.40
2023-01-10T00:54:37.688Z,6.50
2023-01-10T00:57:07.356Z,6.50
2023-01-10T00:59:37.109Z,6.60
2023-01-10T01:02:04.876Z,6.70
2023-01-10T01:04:34.415Z,6.80
2023-01-10T01:07:04.528Z,6.80
2023-01-10T01:09:53.934Z,6.70
2023-01-10T01:12:23.438Z,6.80
2023-01-10T01:14:53.044Z,6.80
2023-01-10T01:17:20.372Z,6.80
2023-01-10T01:19:49.842Z,6.90
2023-01-10T01:22:17.118Z,7.00
2023-01-10T01:24:46.722Z,7.00
2023-01-10T01:27:13.957Z,7.00
2023-01-10T01:29:43.792Z,7.10
2023-01-10T01:32:13.387Z,7.20
2023-01-10T01:34:41.137Z,7.20
2023-01-10T01:37:08.978Z,7.30
2023-01-10T01:39:36.221Z,7.30
2023-01-10T01:42:06.379Z,7.30
2023-01-10T01:44:38.185Z,7.20
2023-01-10T01:47:08.491Z,7.30
2023-01-10T01:49:41.087Z,7.30
2023-01-10T01:52:15.709Z,7.30
2023-01-10T01:54:45.380Z,7.20
2023-01-10T01:57:17.116Z,7.10
2023-01-10T01:59:47.793Z,6.90
2023-01-10T02:02:22.847Z,6.90
2023-01-10T02:05:22.842Z,6.90
2023-01-10T02:07:56.118Z,6.80
2023-01-10T02:10:38.381Z,6.80
2023-01-10T02:13:11.643Z,6.70
2023-01-10T02:15:41.445Z,6.70
2023-01-10T02:18:11.044Z,6.60
2023-01-10T02:20:53.933Z,6.70
2023-01-10T02:23:46.942Z,6.70
2023-01-10T02:26:40.658Z,6.70
2023-01-10T02:29:26.479Z,6.60
2023-01-10T02:32:43.845Z,6.60
2023-01-10T02:35:36.141Z,6.70
2023-01-10T02:38:38.588Z,6.70
2023-01-10T02:41:17.564Z,6.70
2023-01-10T02:43:57.276Z,6.60
2023-01-10T02:46:32.757Z,6.60
2023-01-10T02:49:02.274Z,6.70
2023-01-10T02:51:35.213Z,6.60
2023-01-10T02:54:25.806Z,6.60
2023-01-10T02:57:14.561Z,6.60
2023-01-10T02:59:51.654Z,6.50
2023-01-10T03:02:36.981Z,6.40
2023-01-10T03:05:33.325Z,6.50
2023-01-10T03:08:26.667Z,6.50
2023-01-10T03:11:02.659Z,6.50
2023-01-10T03:13:39.496Z,6.50
2023-01-10T03:16:19.529Z,6.50
2023-01-10T03:18:58.193Z,6.50
2023-01-10T03:21:27.785Z,6.50
2023-01-10T03:23:59.155Z,6.50
2023-01-10T03:26:58.367Z,6.50
2023-01-10T03:29:34.023Z,6.40
2023-01-10T03:32:08.940Z,6.40
2023-01-10T03:34:36.798Z,6.20
2023-01-10T03:37:34.119Z,6.20
2023-01-10T03:40:29.915Z,6.10
2023-01-10T03:43:23.871Z,6.10
2023-01-10T03:46:14.061Z,6.10
2023-01-10T03:48:46.923Z,6.10
2023-01-10T03:51:17.946Z,6.10
2023-01-10T03:53:45.382Z,6.10
2023-01-10T03:56:15.960Z,6.10
2023-01-10T03:58:45.699Z,6.20
2023-01-10T04:01:13.091Z,6.20
2023-01-10T04:03:42.705Z,6.10
2023-01-10T04:06:10.373Z,6.10
2023-01-10T04:08:42.087Z,6.20
2023-01-10T04:11:09.296Z,6.10
2023-01-10T04:13:42.006Z,6.00
2023-01-10T04:16:09.647Z,6.00
2023-01-10T04:18:37.005Z,6.00
2023-01-10T04:21:07.015Z,6.00
2023-01-10T04:23:38.594Z,6.00
2023-01-10T04:26:05.845Z,6.00
2023-01-10T04:28:35.237Z,6.00
2023-01-10T04:31:02.744Z,6.00
2023-01-10T04:33:32.529Z,6.00
2023-01-10T04:35:59.760Z,5.90
2023-01-10T04:38:27.100Z,5.90
2023-01-10T04:40:57.842Z,5.90
2023-01-10T04:43:26.050Z,5.90
2023-01-10T04:45:53.431Z,5.80
2023-01-10T04:48:22.926Z,5.90
2023-01-10T04:50:55.522Z,5.90
2023-01-10T04:53:23.239Z,5.90
2023-01-10T04:55:50.549Z,5.80
2023-01-10T04:58:19.978Z,5.80
2023-01-10T05:00:49.768Z,5.70
2023-01-10T05:03:20.368Z,5.60
2023-01-10T05:05:49.863Z,5.60
2023-01-10T05:08:17.081Z,5.60
2023-01-10T05:10:46.795Z,5.60
2023-01-10T05:13:16.658Z,5.60
2023-01-10T05:15:46.281Z,5.60
2023-01-10T05:18:15.749Z,5.60
2023-01-10T05:20:45.245Z,5.60
2023-01-10T05:23:12.464Z,5.50
2023-01-10T05:25:42.175Z,5.40
2023-01-10T05:28:11.915Z,5.40
2023-01-10T05:30:39.157Z,5.40
2023-01-10T05:33:06.603Z,5.40
2023-01-10T05:35:34.592Z,5.40
2023-01-10T05:38:05.275Z,5.30
2023-01-10T05:40:34.751Z,5.30
2023-01-10T05:43:04.096Z,5.20
2023-01-10T05:45:33.942Z,5.20
2023-01-10T05:48:03.727Z,5.20
2023-01-10T05:50:33.407Z,5.20
2023-01-10T05:53:05.786Z,5.20
2023-01-10T05:55:33.924Z,5.20
2023-01-10T05:58:01.286Z,5.20
2023-01-10T06:00:30.934Z,5.10
2023-01-10T06:02:58.473Z,5.10
2023-01-10T06:05:26.034Z,5.00
2023-01-10T06:07:55.462Z,5.00
2023-01-10T06:10:22.835Z,5.00
2023-01-10T06:12:52.224Z,5.10
2023-01-10T06:15:19.490Z,5.10
2023-01-10T06:17:46.790Z,5.10
2023-01-10T06:20:16.627Z,5.00
2023-01-10T06:22:46.433Z,5.00
2023-01-10T06:25:13.899Z,5.00
2023-01-10T06:27:47.455Z,4.90
2023-01-10T06:30:15.044Z,4.90
2023-01-10T06:32:45.039Z,4.80
2023-01-10T06:35:14.875Z,4.80
2023-01-10T06:37:42.120Z,4.80
2023-01-10T06:40:11.057Z,4.80
2023-01-10T06:42:41.593Z,4.90
2023-01-10T06:45:10.860Z,4.80
2023-01-10T06:47:42.733Z,4.80
2023-01-10T06:50:10.829Z,4.80
2023-01-10T06:52:38.074Z,4.80
2023-01-10T06:55:06.898Z,4.90
2023-01-10T06:57:35.639Z,4.80
2023-01-10T07:00:05.256Z,4.80
2023-01-10T07:02:32.543Z,4.80
2023-01-10T07:04:59.781Z,4.80
2023-01-10T07:07:27.085Z,4.80
2023-01-10T07:09:54.357Z,4.80
2023-01-10T07:12:21.669Z,4.70
2023-01-10T07:14:51.528Z,4.70
2023-01-10T07:17:23.907Z,4.70
2023-01-10T07:19:51.195Z,4.70
2023-01-10T07:22:20.724Z,4.70
2023-01-10T07:24:47.969Z,4.70
2023-01-10T07:27:17.529Z,4.70
2023-01-10T07:29:44.815Z,4.70
2023-01-10T07:32:12.138Z,4.70
2023-01-10T07:34:39.370Z,4.70
2023-01-10T07:37:06.694Z,4.80
2023-01-10T07:39:34.311Z,4.70
2023-01-10T07:42:05.204Z,4.80
2023-01-10T07:44:34.933Z,4.80
2023-01-10T07:47:02.795Z,4.80
2023-01-10T07:49:32.970Z,4.90
2023-01-10T07:52:05.070Z,4.90
2023-01-10T07:54:35.273Z,4.90
2023-01-10T07:57:03.031Z,5.00
2023-01-10T07:59:30.297Z,5.10
2023-01-10T08:01:57.653Z,5.10
2023-01-10T08:04:27.394Z,5.20
2023-01-10T08:06:58.314Z,5.20
2023-01-10T08:09:25.587Z,5.30
2023-01-10T08:11:52.806Z,5.30
2023-01-10T08:14:22.342Z,5.40
2023-01-10T08:16:49.601Z,5.50
2023-01-10T08:19:19.280Z,5.60
2023-01-10T08:21:46.524Z,5.80
2023-01-10T08:24:13.765Z,5.90
2023-01-10T08:26:41.032Z,6.10
2023-01-10T08:29:10.401Z,6.10
2023-01-10T08:31:37.816Z,6.10
2023-01-10T08:34:05.130Z,6.20
2023-01-10T08:36:32.495Z,6.20
2023-01-10T08:39:01.888Z,6.20
2023-01-10T08:41:29.536Z,6.30
2023-01-10T08:43:57.057Z,6.30
2023-01-10T08:46:26.678Z,6.30
2023-01-10T08:49:02.919Z,6.30
2023-01-10T08:51:32.925Z,6.40
2023-01-10T08:54:02.489Z,6.40
2023-01-10T08:56:30.430Z,6.40
2023-01-10T08:59:00.411Z,6.20
2023-01-10T09:01:30.172Z,6.30
2023-01-10T09:03:57.602Z,6.20
2023-01-10T09:06:25.150Z,6.30
2023-01-10T09:08:52.664Z,6.30
2023-01-10T09:11:24.586Z,6.40
2023-01-10T09:13:54.091Z,6.40
2023-01-10T09:16:21.527Z,6.50
2023-01-10T09:18:48.829Z,6.60
2023-01-10T09:21:16.096Z,6.60
2023-01-10T09:23:44.598Z,6.70
2023-01-10T09:26:11.999Z,6.80
2023-01-10T09:28:41.777Z,6.90
2023-01-10T09:31:14.480Z,7.00
2023-01-10T09:33:47.072Z,7.10
2023-01-10T09:36:16.164Z,7.00
2023-01-10T09:38:46.812Z,7.00
2023-01-10T09:41:26.092Z,7.10
2023-01-10T09:44:08.359Z,7.10
2023-01-10T09:47:06.012Z,7.10
2023-01-10T09:49:47.963Z,7.10
2023-01-10T09:52:53.065Z,7.20
2023-01-10T09:55:42.470Z,7.30
2023-01-10T09:58:22.086Z,7.30
2023-01-10T10:00:54.171Z,7.40
2023-01-10T10:03:43.649Z,7.40
2023-01-10T10:06:15.018Z,7.40
2023-01-10T10:08:45.713Z,7.40
2023-01-10T10:11:33.145Z,7.50
2023-01-10T10:14:18.274Z,7.50
2023-01-10T10:17:16.722Z,7.40
2023-01-10T10:19:52.772Z,7.50
2023-01-10T10:22:29.433Z,7.60
2023-01-10T10:25:34.420Z,7.80
2023-01-10T10:28:23.655Z,7.90
2023-01-10T10:31:15.200Z,7.80
2023-01-10T10:33:54.680Z,7.80
2023-01-10T10:36:27.502Z,8.00
2023-01-10T10:38:58.659Z,8.20
2023-01-10T10:41:32.633Z,8.20
2023-01-10T10:44:05.001Z,8.30
2023-01-10T10:46:35.130Z,8.30
2023-01-10T10:49:18.750Z,8.30
2023-01-10T10:51:50.337Z,8.50
2023-01-10T10:54:17.773Z,8.50
2023-01-10T10:56:47.818Z,8.50
2023-01-10T10:59:19.872Z,8.50
2023-01-10T11:01:50.936Z,8.50
2023-01-10T11:04:24.498Z,8.40
2023-01-10T11:06:51.896Z,8.40
2023-01-10T11:09:42.989Z,8.40
2023-01-10T11:12:17.367Z,8.40
2023-01-10T11:14:53.291Z,8.40
2023-01-10T11:17:30.463Z,8.30
2023-01-10T11:20:04.296Z,8.30
2023-01-10T11:22:46.818Z,8.30
2023-01-10T11:25:16.538Z,8.30
2023-01-10T11:27:53.992Z,8.20
2023-01-10T11:30:30.970Z,8.20
2023-01-10T11:33:02.305Z,8.10
2023-01-10T11:35:33.813Z,8.20
2023-01-10T11:38:02.639Z,8.10
2023-01-10T11:40:39.542Z,8.10
2023-01-10T11:43:40.365Z,8.10
2023-01-10T11:46:25.879Z,8.10
2023-01-10T11:49:07.981Z,8.20
2023-01-10T11:51:46.028Z,8.30
2023-01-10T11:54:21.272Z,8.30
2023-01-10T11:57:01.217Z,8.20
2023-01-10T11:59:29.587Z,8.10
2023-01-10T12:02:02.190Z,8.30
2023-01-10T12:04:33.950Z,8.30
2023-01-10T12:07:09.383Z,8.40
2023-01-10T12:10:02.294Z,8.40
2023-01-10T12:12:33.491Z,8.50
2023-01-10T12:15:30.153Z,8.50
2023-01-10T12:18:00.242Z,8.60
2023-01-10T12:20:33.410Z,8.60
2023-01-10T12:23:16.473Z,8.60
2023-01-10T12:25:45.838Z,8.50
2023-01-10T12:28:23.703Z,8.50
2023-01-10T12:30:53.350Z,8.60
2023-01-10T12:33:28.390Z,8.60
2023-01-10T12:36:35.618Z,8.50
2023-01-10T12:39:11.295Z,8.40
2023-01-10T12:42:07.058Z,8.30
2023-01-10T12:44:43.939Z,8.40
2023-01-10T12:47:49.387Z,8.40
2023-01-10T12:50:25.030Z,8.40
2023-01-10T12:53:06.889Z,8.40
2023-01-10T12:55:42.279Z,8.30
2023-01-10T12:58:43.001Z,8.30
2023-01-10T13:01:15.637Z,8.20
2023-01-10T13:03:44.485Z,8.10
2023-01-10T13:06:22.697Z,8.10
2023-01-10T13:08:51.939Z,8.00
2023-01-10T13:11:23.465Z,8.00
2023-01-10T13:13:56.711Z,7.90
2023-01-10T13:16:29.724Z,7.90
2023-01-10T13:19:07.707Z,7.90
2023-01-10T13:21:35.959Z,7.80
2023-01-10T13:24:18.285Z,7.80
2023-01-10T13:26:48.803Z,7.80
2023-01-10T13:29:20.703Z,7.80
2023-01-10T13:31:57.030Z,7.80
2023-01-10T13:34:32.269Z,7.70
2023-01-10T13:37:13.358Z,7.70
2023-01-10T13:39:46.080Z,7.70
2023-01-10T13:42:44.356Z,7.60
2023-01-10T13:45:13.397Z,7.60
2023-01-10T13:47:40.835Z,7.50
2023-01-10T13:50:28.430Z,7.50
2023-01-10T13:53:04.463Z,7.50
2023-01-10T13:55:46.146Z,7.40
2023-01-10T13:58:20.148Z,7.40
2023-01-10T14:01:10.250Z,7.40
2023-01-10T14:03:51.162Z,7.40
2023-01-10T14:06:41.265Z,7.30
2023-01-10T14:09:14.713Z,7.30
2023-01-10T14:11:45.088Z,7.30
2023-01-10T14:14:38.173Z,7.20
2023-01-10T14:17:29.110Z,7.20
2023-01-10T14:19:59.116Z,7.10
2023-01-10T14:22:26.512Z,7.00
2023-01-10T14:24:54.454Z,7.00
2023-01-10T14:27:22.894Z,7.00
2023-01-10T14:29:57.074Z,7.00
2023-01-10T14:32:33.506Z,7.00
2023-01-10T14:35:03.551Z,7.00
2023-01-10T14:37:43.518Z,7.00
2023-01-10T14:40:34.463Z,6.90
2023-01-10T14:43:06.040Z,7.00
2023-01-10T14:45:55.938Z,7.00
2023-01-10T14:48:29.412Z,6.90
2023-01-10T14:51:35.513Z,6.90
2023-01-10T14:54:17.629Z,6.90
2023-01-10T14:56:53.235Z,6.90
2023-01-10T14:59:36.034Z,6.90
2023-01-10T15:02:25.085Z,6.90
2023-01-10T15:05:07.643Z,6.80
2023-01-10T15:07:38.277Z,6.80
2023-01-10T15:10:28.266Z,6.80
2023-01-10T15:12:59.916Z,6.80
2023-01-10T15:15:39.149Z,6.90
2023-01-10T15:18:36.291Z,6.90
2023-01-10T15:21:04.709Z,6.90
2023-01-10T15:23:40.305Z,6.90
2023-01-10T15:26:11.861Z,6.90
2023-01-10T15:28:39.164Z,6.90
2023-01-10T15:31:08.122Z,6.90
2023-01-10T15:33:37.483Z,6.90
2023-01-10T15:36:15.709Z,6.90
2023-01-10T15:38:47.663Z,6.90
2023-01-10T15:41:21.287Z,6.90
2023-01-10T15:43:54.445Z,6.90
2023-01-10T15:46:26.885Z,6.90
2023-01-10T15:49:05.399Z,6.90
2023-01-10T15:51:41.540Z,7.00
2023-01-10T15:54:21.714Z,7.00
2023-01-10T15:57:00.124Z,7.00
2023-01-10T15:59:40.951Z,7.00
2023-01-10T16:02:29.655Z,7.00
2023-01-10T16:05:15.306Z,7.00
2023-01-10T16:07:44.991Z,7.00
2023-01-10T16:10:23.174Z,7.00
2023-01-10T16:13:27.572Z,7.10
2023-01-10T16:15:58.531Z,7.10
2023-01-10T16:18:26.576Z,7.10
2023-01-10T16:20:59.633Z,7.10
2023-01-10T16:23:32.690Z,7.20
2023-01-10T16:26:03.688Z,7.20
2023-01-10T16:28:35.946Z,7.20
2023-01-10T16:31:07.092Z,7.20
2023-01-10T16:33:37.697Z,7.20
2023-01-10T16:36:17.718Z,7.20
2023-01-10T16:38:46.206Z,7.30
2023-01-10T16:41:33.715Z,7.30
2023-01-10T16:44:03.543Z,7.40
2023-01-10T16:46:31.143Z,7.40
2023-01-10T16:48:58.518Z,7.50
2023-01-10T16:51:28.808Z,7.50
2023-01-10T16:53:56.411Z,7.50
2023-01-10T16:56:26.201Z,7.50
2023-01-10T16:58:54.576Z,7.50
2023-01-10T17:01:26.621Z,7.60
2023-01-10T17:03:57.451Z,7.60
2023-01-10T17:06:24.757Z,7.70
2023-01-10T17:08:54.507Z,7.70
2023-01-10T17:11:35.048Z,7.70
2023-01-10T17:14:04.295Z,7.80
2023-01-10T17:16:32.261Z,7.80
2023-01-10T17:19:01.890Z,7.80
2023-01-10T17:21:32.027Z,7.80
2023-01-10T17:24:01.794Z,7.80
2023-01-10T17:26:29.072Z,7.80
2023-01-10T17:28:56.324Z,7.90
2023-01-10T17:31:23.601Z,7.80
2023-01-10T17:33:51.122Z,7.90
2023-01-10T17:36:19.562Z,7.90
2023-01-10T17:38:49.937Z,8.00
2023-01-10T17:41:24.472Z,8.00
2023-01-10T17:43:51.907Z,8.10
2023-01-10T17:46:21.686Z,8.10
2023-01-10T17:48:49.584Z,8.10
2023-01-10T17:51:17.496Z,8.10
2023-01-10T17:53:44.843Z,8.20
2023-01-10T17:56:12.199Z,8.20
2023-01-10T17:58:41.803Z,8.20
2023-01-10T18:01:22.323Z,8.10
2023-01-10T18:03:52.798Z,8.10
2023-01-10T18:06:25.571Z,8.00
2023-01-10T18:08:53.871Z,8.00
2023-01-10T18:11:22.942Z,8.00
2023-01-10T18:13:52.597Z,8.10
2023-01-10T18:16:19.967Z,8.10
2023-01-10T18:18:47.368Z,8.10
2023-01-10T18:21:16.743Z,8.10
2023-01-10T18:23:47.639Z,8.20
2023-01-10T18:26:14.938Z,8.20
2023-01-10T18:28:44.283Z,8.30
2023-01-10T18:31:17.095Z,8.30
2023-01-10T18:33:46.263Z,8.30
2023-01-10T18:36:19.153Z,8.40
2023-01-10T18:38:47.862Z,8.30
2023-01-10T18:41:19.237Z,8.40
2023-01-10T18:43:47.540Z,8.40
2023-01-10T18:46:18.601Z,8.50
2023-01-10T18:48:46.801Z,8.50
2023-01-10T18:51:14.840Z,8.50
2023-01-10T18:53:42.807Z,8.60
2023-01-10T18:56:12.691Z,8.60
2023-01-10T18:58:41.619Z,8.70
2023-01-10T19:01:15.738Z,8.70
2023-01-10T19:03:44.341Z,8.80
2023-01-10T19:06:18.163Z,8.80
2023-01-10T19:08:46.903Z,8.80
2023-01-10T19:11:16.511Z,8.80
2023-01-10T19:13:48.340Z,8.90
2023-01-10T19:16:17.461Z,8.90
2023-01-10T19:18:55.851Z,8.90
2023-01-10T19:21:26.017Z,9.00
2023-01-10T19:23:56.631Z,8.90
2023-01-10T19:26:24.530Z,9.00
2023-01-10T19:28:52.374Z,9.00
2023-01-10T19:31:25.822Z,9.00
2023-01-10T19:33:53.483Z,9.10
2023-01-10T19:36:24.817Z,9.10
2023-01-10T19:38:56.741Z,9.10
2023-01-10T19:41:25.408Z,9.10
2023-01-10T19:44:00.350Z,9.20
2023-01-10T19:46:28.364Z,9.20
2023-01-10T19:48:56.375Z,9.20
2023-01-10T19:51:23.946Z,9.40
2023-01-10T19:53:51.391Z,9.40
2023-01-10T19:56:23.149Z,9.40
2023-01-10T19:58:51.162Z,9.40
2023-01-10T20:01:22.059Z,9.40
2023-01-10T20:03:52.309Z,9.40
2023-01-10T20:06:24.524Z,9.50
2023-01-10T20:08:54.138Z,9.50
2023-01-10T20:11:23.498Z,9.50
2023-01-10T20:13:53.931Z,9.60
2023-01-10T20:16:23.711Z,9.60
2023-01-10T20:18:52.200Z,9.60
2023-01-10T20:21:25.019Z,9.50
2023-01-10T20:23:52.684Z,9.50
2023-01-10T20:26:27.919Z,9.60
2023-01-10T20:28:59.048Z,9.60
2023-01-10T20:31:28.833Z,9.50
2023-01-10T20:33:56.115Z,9.50
2023-01-10T20:36:28.185Z,9.50
2023-01-10T20:38:56.153Z,9.50
2023-01-10T20:41:30.315Z,9.40
2023-01-10T20:43:58.715Z,9.40
2023-01-10T20:46:29.471Z,9.50
2023-01-10T20:48:58.289Z,9.50
2023-01-10T20:51:31.990Z,9.50
2023-01-10T20:54:02.254Z,9.50
2023-01-10T20:56:32.787Z,9.60
2023-01-10T20:59:02.498Z,9.60
2023-01-10T21:01:34.890Z,9.70
2023-01-10T21:04:06.937Z,9.60
2023-01-10T21:06:35.706Z,9.70
2023-01-10T21:09:04.513Z,9.70
2023-01-10T21:11:33.537Z,9.70
2023-01-10T21:14:08.227Z,9.80
2023-01-10T21:16:38.742Z,9.80
2023-01-10T21:19:06.081Z,9.90
2023-01-10T21:21:33.371Z,9.90
2023-01-10T21:24:03.458Z,10.00
2023-01-10T21:26:30.736Z,10.00
2023-01-10T21:29:01.888Z,10.10
2023-01-10T21:31:31.465Z,10.10
2023-01-10T21:33:58.845Z,10.10
2023-01-10T21:36:28.626Z,10.20
2023-01-10T21:38:55.970Z,10.30
2023-01-10T21:41:42.358Z,10.30
2023-01-10T21:44:14.856Z,10.40
2023-01-10T21:46:48.825Z,10.50
2023-01-10T21:49:16.151Z,10.50
2023-01-10T21:51:46.088Z,10.60
2023-01-10T21:54:13.437Z,10.70
2023-01-10T21:56:45.478Z,10.70
2023-01-10T21:59:12.797Z,10.80
2023-01-10T22:01:40.050Z,10.80
2023-01-10T22:04:07.556Z,10.90
2023-01-10T22:06:37.444Z,11.00
2023-01-10T22:09:07.152Z,11.00
2023-01-10T22:11:34.416Z,11.00
2023-01-10T22:14:04.059Z,11.00
2023-01-10T22:16:31.409Z,11.00
2023-01-10T22:18:59.068Z,11.00
2023-01-10T22:21:28.419Z,11.10
2023-01-10T22:23:55.737Z,11.10
2023-01-10T22:26:30.143Z,11.10
2023-01-10T22:28:59.737Z,11.10
2023-01-10T22:31:29.093Z,11.20
2023-01-10T22:33:56.511Z,11.20
2023-01-10T22:36:23.751Z,11.30
2023-01-10T22:38:53.345Z,11.30
2023-01-10T22:41:26.524Z,11.30
2023-01-10T22:43:54.699Z,11.30
2023-01-10T22:46:24.654Z,11.40
2023-01-10T22:48:52.916Z,11.40
2023-01-10T22:51:21.364Z,11.40
2023-01-10T22:53:56.643Z,11.30
2023-01-10T22:56:26.095Z,11.30
2023-01-10T22:58:55.699Z,11.40
2023-01-10T23:01:24.834Z,11.40
2023-01-10T23:03:56.560Z,11.50
2023-01-10T23:06:30.775Z,11.40
2023-01-10T23:08:58.083Z,11.40
2023-01-10T23:11:27.639Z,11.50
2023-01-10T23:13:54.935Z,11.50
2023-01-10T23:16:28.615Z,11.50
2023-01-10T23:18:59.596Z,11.50
2023-01-10T23:21:29.295Z,11.50
2023-01-10T23:23:57.049Z,11.60
2023-01-10T23:26:24.357Z,11.60
2023-01-10T23:28:54.146Z,11.60
2023-01-10T23:31:25.975Z,11.60
2023-01-10T23:33:53.881Z,11.60
2023-01-10T23:36:23.939Z,11.70
2023-01-10T23:38:54.144Z,11.70
2023-01-10T23:41:21.387Z,11.70
2023-01-10T23:43:50.249Z,11.80
2023-01-10T23:46:18.188Z,11.80
2023-01-10T23:48:46.535Z,11.80
2023-01-10T23:51:14.493Z,11.80
2023-01-10T23:53:44.106Z,11.80
2023-01-10T23:56:14.522Z,11.80
2023-01-10T23:58:44.116Z,11.80
